Time,TemperatureF,DewpointF,PressureIn,WindDirection,WindDirectionDegrees,WindSpeedMPH,WindSpeedGustMPH,Humidity,HourlyPrecipIn,Conditions,Clouds,dailyrainin,SoftwareType,DateUTC
2013-05-20 00:02:00,38.1,25.1,21.70,NW,315,3.1,3.6,59,0.00,,---,0.00,VWS V14.01,2013-05-20 06:02:00,
2013-05-20 00:07:00,38.1,25.1,21.70,NW,315,11.0,11.0,59,0.00,,---,0.00,VWS V14.01,2013-05-20 06:07:00,
2013-05-20 00:12:00,38.1,25.1,21.70,NW,315,8.7,8.7,59,0.00,,---,0.00,VWS V14.01,2013-05-20 06:12:00,
2013-05-20 00:17:00,37.9,25.3,21.70,NW,315,3.1,5.4,60,0.00,,---,0.00,VWS V14.01,2013-05-20 06:17:00,
2013-05-20 00:22:00,37.9,24.9,21.67,West,270,3.6,8.7,59,0.00,,---,0.00,VWS V14.01,2013-05-20 06:22:00,
2013-05-20 00:27:00,37.9,24.9,21.67,NW,315,0.0,0.0,59,0.00,,---,0.00,VWS V14.01,2013-05-20 06:27:00,
2013-05-20 00:32:00,37.6,25.4,21.67,East,90,2.2,4.9,61,0.00,,---,0.00,VWS V14.01,2013-05-20 06:32:00,
2013-05-20 00:37:00,37.6,25.4,21.67,West,270,3.1,3.1,61,0.00,,---,0.00,VWS V14.01,2013-05-20 06:37:00,
2013-05-20 00:42:00,37.4,25.6,21.67,NW,315,5.4,5.4,62,0.00,,---,0.00,VWS V14.01,2013-05-20 06:42:00,
2013-05-20 00:47:00,37.4,25.6,21.67,NW,315,3.6,3.6,62,0.00,,---,0.00,VWS V14.01,2013-05-20 06:47:00,
2013-05-20 00:52:00,37.2,25.8,21.67,NW,315,3.6,8.7,63,0.00,,---,0.00,VWS V14.01,2013-05-20 06:52:00,
2013-05-20 00:57:00,37.0,25.6,21.67,NW,315,5.8,5.8,63,0.00,,---,0.00,VWS V14.01,2013-05-20 06:57:00,
2013-05-20 01:03:00,37.2,25.4,21.67,NW,315,4.9,7.6,62,0.00,,---,0.00,VWS V14.01,2013-05-20 07:03:00,
2013-05-20 01:08:00,37.0,24.9,21.67,West,270,8.7,8.7,61,0.00,,---,0.00,VWS V14.01,2013-05-20 07:08:00,
2013-05-20 01:13:00,37.0,24.9,21.67,NW,315,8.1,8.1,61,0.00,,---,0.00,VWS V14.01,2013-05-20 07:13:00,
2013-05-20 01:18:00,37.0,24.9,21.67,NW,315,8.7,8.7,61,0.00,,---,0.00,VWS V14.01,2013-05-20 07:18:00,
2013-05-20 01:23:00,37.2,24.2,21.67,NW,315,5.8,8.3,59,0.00,,---,0.00,VWS V14.01,2013-05-20 07:23:00,
2013-05-20 01:28:00,37.2,24.2,21.67,NW,315,5.8,7.2,59,0.00,,---,0.00,VWS V14.01,2013-05-20 07:28:00,
2013-05-20 01:33:00,37.2,24.2,21.67,NW,315,8.1,8.1,59,0.00,,---,0.00,VWS V14.01,2013-05-20 07:33:00,
2013-05-20 01:38:00,37.2,24.2,21.67,NW,315,5.8,5.8,59,0.00,,---,0.00,VWS V14.01,2013-05-20 07:38:00,
2013-05-20 01:43:00,37.4,24.0,21.67,NW,315,6.7,6.7,58,0.00,,---,0.00,VWS V14.01,2013-05-20 07:43:00,
2013-05-20 01:48:00,37.4,24.0,21.67,West,270,5.8,5.8,58,0.00,,---,0.00,VWS V14.01,2013-05-20 07:48:00,
2013-05-20 01:53:00,37.6,23.7,21.67,NW,315,8.1,15.4,57,0.00,,---,0.00,VWS V14.01,2013-05-20 07:53:00,
2013-05-20 01:58:00,37.6,23.7,21.67,NW,315,3.6,3.6,57,0.00,,---,0.00,VWS V14.01,2013-05-20 07:58:00,
2013-05-20 02:03:00,37.6,23.7,21.67,WSW,248,4.0,6.3,57,0.00,,---,0.00,VWS V14.01,2013-05-20 08:03:00,
2013-05-20 02:08:00,37.4,23.6,21.67,NW,315,3.1,5.8,57,0.00,,---,0.00,VWS V14.01,2013-05-20 08:08:00,
2013-05-20 02:13:00,37.4,23.6,21.67,NW,315,0.0,5.4,57,0.00,,---,0.00,VWS V14.01,2013-05-20 08:13:00,
2013-05-20 02:18:00,37.4,23.6,21.67,WNW,292,3.1,4.9,57,0.00,,---,0.00,VWS V14.01,2013-05-20 08:18:00,
2013-05-20 02:23:00,37.4,23.1,21.67,NNW,338,2.2,4.0,56,0.00,,---,0.00,VWS V14.01,2013-05-20 08:23:00,
2013-05-20 02:29:00,37.4,22.7,21.67,West,270,2.7,5.4,55,0.00,,---,0.00,VWS V14.01,2013-05-20 08:29:00,
2013-05-20 02:34:00,37.4,22.7,21.67,NW,315,3.6,3.6,55,0.00,,---,0.00,VWS V14.01,2013-05-20 08:34:00,
2013-05-20 02:39:00,37.4,22.7,21.67,West,270,0.0,3.6,55,0.00,,---,0.00,VWS V14.01,2013-05-20 08:39:00,
2013-05-20 02:44:00,37.4,22.7,21.67,NW,315,3.1,3.1,55,0.00,,---,0.00,VWS V14.01,2013-05-20 08:44:00,
2013-05-20 02:49:00,37.4,22.3,21.67,NW,315,4.9,4.9,54,0.00,,---,0.00,VWS V14.01,2013-05-20 08:49:00,
2013-05-20 02:51:00,37.6,22.5,21.67,South,180,2.7,3.6,54,0.00,,---,0.00,VWS V14.01,2013-05-20 08:51:00,
2013-05-20 02:54:00,37.6,22.5,21.67,South,180,2.7,3.6,54,0.00,,---,0.00,VWS V14.01,2013-05-20 08:54:00,
2013-05-20 02:59:00,37.6,22.5,21.67,South,180,2.7,3.6,54,0.00,,---,0.00,VWS V14.01,2013-05-20 08:59:00,
2013-05-20 03:04:00,37.2,23.4,21.67,North,0,2.7,3.6,57,0.00,,---,0.00,VWS V14.01,2013-05-20 09:04:00,
2013-05-20 03:09:00,37.0,23.2,21.67,West,270,0.0,0.0,57,0.00,,---,0.00,VWS V14.01,2013-05-20 09:09:00,
2013-05-20 03:14:00,36.9,23.5,21.67,North,0,0.0,0.0,58,0.00,,---,0.00,VWS V14.01,2013-05-20 09:14:00,
2013-05-20 03:19:00,36.7,24.1,21.67,NW,315,0.0,0.0,60,0.00,,---,0.00,VWS V14.01,2013-05-20 09:19:00,
2013-05-20 03:24:00,36.9,24.7,21.67,NW,315,0.0,0.0,61,0.00,,---,0.00,VWS V14.01,2013-05-20 09:24:00,
2013-05-20 03:29:00,37.0,24.9,21.67,NW,315,0.0,0.0,61,0.00,,---,0.00,VWS V14.01,2013-05-20 09:29:00,
2013-05-20 03:34:00,37.0,24.9,21.67,NW,315,0.0,0.0,61,0.00,,---,0.00,VWS V14.01,2013-05-20 09:34:00,
2013-05-20 03:39:00,37.0,24.9,21.67,NW,315,0.0,0.0,61,0.00,,---,0.00,VWS V14.01,2013-05-20 09:39:00,
2013-05-20 03:45:00,37.0,25.2,21.67,NW,315,2.7,3.1,62,0.00,,---,0.00,VWS V14.01,2013-05-20 09:45:00,
2013-05-20 03:50:00,37.0,25.6,21.67,NW,315,4.0,4.0,63,0.00,,---,0.00,VWS V14.01,2013-05-20 09:50:00,
2013-05-20 03:55:00,36.9,25.5,21.67,NW,315,3.1,3.1,63,0.00,,---,0.00,VWS V14.01,2013-05-20 09:55:00,
2013-05-20 04:00:00,36.9,25.8,21.67,North,0,0.0,3.6,64,0.00,,---,0.00,VWS V14.01,2013-05-20 10:00:00,
2013-05-20 04:05:00,36.7,26.0,21.67,North,0,0.0,0.0,65,0.00,,---,0.00,VWS V14.01,2013-05-20 10:05:00,
2013-05-20 04:10:00,36.5,25.9,21.67,North,0,0.0,0.0,65,0.00,,---,0.00,VWS V14.01,2013-05-20 10:10:00,
2013-05-20 04:15:00,36.5,25.9,21.67,North,0,2.2,3.1,65,0.00,,---,0.00,VWS V14.01,2013-05-20 10:15:00,
2013-05-20 04:20:00,36.5,25.9,21.67,North,0,0.0,0.0,65,0.00,,---,0.00,VWS V14.01,2013-05-20 10:20:00,
2013-05-20 04:25:00,36.5,25.9,21.67,North,0,0.0,0.0,65,0.00,,---,0.00,VWS V14.01,2013-05-20 10:25:00,
2013-05-20 04:30:00,36.5,26.2,21.67,North,0,0.0,0.0,66,0.00,,---,0.00,VWS V14.01,2013-05-20 10:30:00,
2013-05-20 04:35:00,36.3,26.4,21.67,North,0,0.0,0.0,67,0.00,,---,0.00,VWS V14.01,2013-05-20 10:35:00,
2013-05-20 04:40:00,36.3,26.8,21.67,North,0,0.0,0.0,68,0.00,,---,0.00,VWS V14.01,2013-05-20 10:40:00,
2013-05-20 04:45:00,36.1,26.6,21.67,North,0,0.0,0.0,68,0.00,,---,0.00,VWS V14.01,2013-05-20 10:45:00,
2013-05-20 04:50:00,36.1,27.0,21.67,North,0,0.0,0.0,69,0.00,,---,0.00,VWS V14.01,2013-05-20 10:50:00,
2013-05-20 04:55:00,36.1,27.0,21.67,North,0,0.0,0.0,69,0.00,,---,0.00,VWS V14.01,2013-05-20 10:55:00,
2013-05-20 05:00:00,36.1,27.0,21.67,North,0,0.0,0.0,69,0.00,,---,0.00,VWS V14.01,2013-05-20 11:00:00,
2013-05-20 05:05:00,36.1,27.0,21.70,North,0,0.0,0.0,69,0.00,,---,0.00,VWS V14.01,2013-05-20 11:05:00,
2013-05-20 05:10:00,36.1,27.0,21.70,North,0,0.0,0.0,69,0.00,,---,0.00,VWS V14.01,2013-05-20 11:10:00,
2013-05-20 05:15:00,36.1,27.0,21.70,North,0,0.0,0.0,69,0.00,,---,0.00,VWS V14.01,2013-05-20 11:15:00,
2013-05-20 05:20:00,36.1,27.3,21.70,North,0,0.0,0.0,70,0.00,,---,0.00,VWS V14.01,2013-05-20 11:20:00,
2013-05-20 05:26:00,36.0,27.1,21.70,North,0,0.0,0.0,70,0.00,,---,0.00,VWS V14.01,2013-05-20 11:26:00,
2013-05-20 05:31:00,35.8,27.0,21.70,North,0,0.0,0.0,70,0.00,,---,0.00,VWS V14.01,2013-05-20 11:31:00,
2013-05-20 05:36:00,36.1,27.0,21.70,North,0,0.0,0.0,69,0.00,,---,0.00,VWS V14.01,2013-05-20 11:36:00,
2013-05-20 05:41:00,36.1,27.0,21.70,North,0,0.0,0.0,69,0.00,,---,0.00,VWS V14.01,2013-05-20 11:41:00,
2013-05-20 05:46:00,36.0,27.1,21.70,North,0,0.0,0.0,70,0.00,,---,0.00,VWS V14.01,2013-05-20 11:46:00,
2013-05-20 05:51:00,36.0,27.5,21.70,North,0,0.0,0.0,71,0.00,,---,0.00,VWS V14.01,2013-05-20 11:51:00,
2013-05-20 05:56:00,36.0,27.5,21.70,NW,315,0.0,0.0,71,0.00,,---,0.00,VWS V14.01,2013-05-20 11:56:00,
2013-05-20 06:04:00,36.1,28.0,21.70,NW,315,0.0,0.0,72,0.00,,---,0.00,VWS V14.01,2013-05-20 12:04:00,
2013-05-20 06:09:00,36.1,28.0,21.70,NNW,338,0.0,0.0,72,0.00,,---,0.00,VWS V14.01,2013-05-20 12:09:00,
2013-05-20 06:14:00,36.0,27.8,21.70,NNW,338,0.0,0.0,72,0.00,,---,0.00,VWS V14.01,2013-05-20 12:14:00,
2013-05-20 06:19:00,36.0,28.2,21.70,NNW,338,0.0,0.0,73,0.00,,---,0.00,VWS V14.01,2013-05-20 12:19:00,
2013-05-20 06:24:00,36.0,28.2,21.70,NW,315,0.0,0.0,73,0.00,,---,0.00,VWS V14.01,2013-05-20 12:24:00,
2013-05-20 06:29:00,35.8,28.3,21.70,NW,315,0.0,0.0,74,0.00,,---,0.00,VWS V14.01,2013-05-20 12:29:00,
2013-05-20 06:34:00,35.8,28.3,21.70,NW,315,0.0,0.0,74,0.00,,---,0.00,VWS V14.01,2013-05-20 12:34:00,
2013-05-20 06:39:00,35.8,28.6,21.70,NW,315,0.0,0.0,75,0.00,,---,0.00,VWS V14.01,2013-05-20 12:39:00,
2013-05-20 06:45:00,35.8,29.0,21.70,NW,315,0.0,0.0,76,0.00,,---,0.00,VWS V14.01,2013-05-20 12:45:00,
2013-05-20 06:50:00,35.8,29.0,21.70,NW,315,0.0,0.0,76,0.00,,---,0.00,VWS V14.01,2013-05-20 12:50:00,
2013-05-20 06:55:00,35.8,29.0,21.70,NW,315,0.0,0.0,76,0.00,,---,0.00,VWS V14.01,2013-05-20 12:55:00,
2013-05-20 07:00:00,35.8,29.3,21.70,NW,315,0.0,0.0,77,0.00,,---,0.00,VWS V14.01,2013-05-20 13:00:00,
2013-05-20 07:05:00,35.8,29.3,21.70,NW,315,0.0,0.0,77,0.00,,---,0.00,VWS V14.01,2013-05-20 13:05:00,
2013-05-20 07:10:00,36.0,29.8,21.70,NW,315,0.0,0.0,78,0.00,,---,0.00,VWS V14.01,2013-05-20 13:10:00,
2013-05-20 07:15:00,36.0,29.8,21.70,NW,315,0.0,0.0,78,0.00,,---,0.00,VWS V14.01,2013-05-20 13:15:00,
2013-05-20 07:20:00,36.1,30.0,21.70,NW,315,0.0,0.0,78,0.00,,---,0.00,VWS V14.01,2013-05-20 13:20:00,
2013-05-20 07:25:00,36.1,30.0,21.70,NW,315,0.0,0.0,78,0.00,,---,0.00,VWS V14.01,2013-05-20 13:25:00,
2013-05-20 07:30:00,36.1,30.0,21.70,NW,315,0.0,0.0,78,0.00,,---,0.00,VWS V14.01,2013-05-20 13:30:00,
2013-05-20 07:35:00,36.5,30.3,21.70,NW,315,0.0,0.0,78,0.00,,---,0.00,VWS V14.01,2013-05-20 13:35:00,
2013-05-20 07:40:00,36.3,29.8,21.70,NW,315,0.0,0.0,77,0.00,,---,0.00,VWS V14.01,2013-05-20 13:40:00,
2013-05-20 07:45:00,36.9,30.3,21.70,NW,315,0.0,0.0,77,0.00,,---,0.00,VWS V14.01,2013-05-20 13:45:00,
2013-05-20 07:50:00,37.0,30.5,21.70,NW,315,0.0,0.0,77,0.00,,---,0.00,VWS V14.01,2013-05-20 13:50:00,
2013-05-20 07:55:00,37.4,30.2,21.70,NW,315,4.9,4.9,75,0.00,,---,0.00,VWS V14.01,2013-05-20 13:55:00,
2013-05-20 08:00:00,37.6,30.1,21.70,NW,315,3.1,3.6,74,0.00,,---,0.00,VWS V14.01,2013-05-20 14:00:00,
2013-05-20 08:05:00,37.8,29.9,21.70,NW,315,3.6,4.0,73,0.00,,---,0.00,VWS V14.01,2013-05-20 14:05:00,
2013-05-20 08:10:00,38.1,29.9,21.70,NW,315,2.2,4.0,72,0.00,,---,0.00,VWS V14.01,2013-05-20 14:10:00,
2013-05-20 08:15:00,38.5,29.6,21.70,NW,315,0.0,4.9,70,0.00,,---,0.00,VWS V14.01,2013-05-20 14:15:00,
2013-05-20 08:20:00,39.4,29.7,21.70,NW,315,4.0,4.0,68,0.00,,---,0.00,VWS V14.01,2013-05-20 14:20:00,
2013-05-20 08:25:00,39.9,29.1,21.70,NW,315,0.0,2.2,65,0.00,,---,0.00,VWS V14.01,2013-05-20 14:25:00,
2013-05-20 08:30:00,40.6,28.6,21.70,NW,315,3.1,3.1,62,0.00,,---,0.00,VWS V14.01,2013-05-20 14:30:00,
2013-05-20 08:36:00,40.6,27.0,21.70,NW,315,6.3,6.3,58,0.00,,---,0.00,VWS V14.01,2013-05-20 14:36:00,
2013-05-20 08:41:00,40.5,26.0,21.70,NW,315,2.7,4.0,56,0.00,,---,0.00,VWS V14.01,2013-05-20 14:41:00,
2013-05-20 08:46:00,41.0,25.6,21.70,NW,315,4.9,8.3,54,0.00,,---,0.00,VWS V14.01,2013-05-20 14:46:00,
2013-05-20 08:51:00,41.7,25.9,21.70,NNW,338,2.7,7.2,53,0.00,,---,0.00,VWS V14.01,2013-05-20 14:51:00,
2013-05-20 08:56:00,42.8,26.4,21.70,SW,225,3.6,4.9,52,0.00,,---,0.00,VWS V14.01,2013-05-20 14:56:00,
2013-05-20 09:01:00,43.5,26.1,21.70,SW,225,4.0,4.0,50,0.00,,---,0.00,VWS V14.01,2013-05-20 15:01:00,
2013-05-20 09:06:00,43.7,25.8,21.70,SE,135,5.8,5.8,49,0.00,,---,0.00,VWS V14.01,2013-05-20 15:06:00,
2013-05-20 09:11:00,43.5,25.6,21.70,South,180,4.9,12.3,49,0.00,,---,0.00,VWS V14.01,2013-05-20 15:11:00,
2013-05-20 09:16:00,42.6,24.8,21.70,West,270,5.8,5.8,49,0.00,,---,0.00,VWS V14.01,2013-05-20 15:16:00,
2013-05-20 09:21:00,42.4,24.6,21.70,NW,315,3.6,6.3,49,0.00,,---,0.00,VWS V14.01,2013-05-20 15:21:00,
2013-05-20 09:26:00,42.1,24.3,21.70,SSE,158,2.7,6.3,49,0.00,,---,0.00,VWS V14.01,2013-05-20 15:26:00,
2013-05-20 09:31:00,43.7,25.3,21.70,South,180,3.6,5.8,48,0.00,,---,0.00,VWS V14.01,2013-05-20 15:31:00,
2013-05-20 09:36:00,44.4,26.0,21.70,WNW,292,4.0,5.8,48,0.00,,---,0.00,VWS V14.01,2013-05-20 15:36:00,
2013-05-20 09:41:00,45.3,26.3,21.70,NW,315,4.0,8.7,47,0.00,,---,0.00,VWS V14.01,2013-05-20 15:41:00,
2013-05-20 09:46:00,45.3,25.2,21.70,WSW,248,2.7,2.7,45,0.00,,---,0.00,VWS V14.01,2013-05-20 15:46:00,
2013-05-20 09:51:00,46.0,25.9,21.70,SW,225,5.8,5.8,45,0.00,,---,0.00,VWS V14.01,2013-05-20 15:51:00,
2013-05-20 09:56:00,45.9,25.2,21.70,WNW,292,7.6,8.7,44,0.00,,---,0.00,VWS V14.01,2013-05-20 15:56:00,
2013-05-20 10:01:00,45.7,25.0,21.70,NW,315,5.4,7.6,44,0.00,,---,0.00,VWS V14.01,2013-05-20 16:01:00,
2013-05-20 10:06:00,46.6,25.3,21.70,WNW,292,5.8,5.8,43,0.00,,---,0.00,VWS V14.01,2013-05-20 16:06:00,
2013-05-20 10:11:00,46.2,25.0,21.70,WNW,292,7.6,8.7,43,0.00,,---,0.00,VWS V14.01,2013-05-20 16:11:00,
2013-05-20 10:16:00,46.4,25.1,21.70,West,270,3.6,7.6,43,0.00,,---,0.00,VWS V14.01,2013-05-20 16:16:00,
2013-05-20 10:21:00,46.9,25.6,21.70,NW,315,8.1,8.7,43,0.00,,---,0.00,VWS V14.01,2013-05-20 16:21:00,
2013-05-20 10:26:00,45.7,24.5,21.70,NW,315,4.0,7.6,43,0.00,,---,0.00,VWS V14.01,2013-05-20 16:26:00,
2013-05-20 10:31:00,46.8,25.5,21.70,NW,315,3.6,8.1,43,0.00,,---,0.00,VWS V14.01,2013-05-20 16:31:00,
2013-05-20 10:36:00,46.6,24.7,21.70,WNW,292,5.8,7.2,42,0.00,,---,0.00,VWS V14.01,2013-05-20 16:36:00,
2013-05-20 11:20:00,48.0,26.6,21.70,NW,315,5.8,8.1,43,0.00,,---,0.00,VWS V14.01,2013-05-20 17:20:00,
2013-05-20 11:21:00,47.8,26.4,21.70,SW,225,7.6,7.6,43,0.00,,---,0.00,VWS V14.01,2013-05-20 17:21:00,
2013-05-20 11:22:00,47.8,26.4,21.70,WNW,292,6.3,7.6,43,0.00,,---,0.00,VWS V14.01,2013-05-20 17:22:00,
2013-05-20 11:23:00,48.0,26.6,21.70,WNW,292,7.6,8.1,43,0.00,,---,0.00,VWS V14.01,2013-05-20 17:23:00,
2013-05-20 11:24:00,47.7,26.3,21.70,NW,315,7.6,7.6,43,0.00,,---,0.00,VWS V14.01,2013-05-20 17:24:00,
2013-05-20 11:25:00,47.7,26.3,21.70,WNW,292,2.7,8.1,43,0.00,,---,0.00,VWS V14.01,2013-05-20 17:25:00,
2013-05-20 11:26:00,47.7,26.3,21.70,West,270,4.0,8.1,43,0.00,,---,0.00,VWS V14.01,2013-05-20 17:26:00,
2013-05-20 11:27:00,47.7,26.3,21.70,West,270,2.7,5.4,43,0.00,,---,0.00,VWS V14.01,2013-05-20 17:27:00,
2013-05-20 11:28:00,47.7,26.3,21.70,NW,315,4.0,6.3,43,0.00,,---,0.00,VWS V14.01,2013-05-20 17:28:00,
2013-05-20 11:29:00,48.0,26.6,21.70,NW,315,8.1,8.1,43,0.00,,---,0.00,VWS V14.01,2013-05-20 17:29:00,
2013-05-20 11:30:00,47.7,26.3,21.70,NW,315,4.9,8.1,43,0.00,,---,0.00,VWS V14.01,2013-05-20 17:30:00,
2013-05-20 11:31:00,47.7,25.7,21.70,NW,315,8.3,8.3,42,0.00,,---,0.00,VWS V14.01,2013-05-20 17:31:00,
2013-05-20 11:32:00,47.7,25.7,21.70,SW,225,0.0,8.3,42,0.00,,---,0.00,VWS V14.01,2013-05-20 17:32:00,
2013-05-20 11:33:00,48.0,26.0,21.70,SW,225,4.0,4.0,42,0.00,,---,0.00,VWS V14.01,2013-05-20 17:33:00,
2013-05-20 11:34:00,48.7,26.7,21.70,West,270,7.6,7.6,42,0.00,,---,0.00,VWS V14.01,2013-05-20 17:34:00,
2013-05-20 11:35:00,48.7,26.1,21.70,NW,315,5.8,7.6,41,0.00,,---,0.00,VWS V14.01,2013-05-20 17:35:00,
2013-05-20 11:36:00,48.4,25.8,21.70,NW,315,3.1,8.3,41,0.00,,---,0.00,VWS V14.01,2013-05-20 17:36:00,
2013-05-20 11:37:00,48.6,26.0,21.70,NW,315,8.1,8.1,41,0.00,,---,0.00,VWS V14.01,2013-05-20 17:37:00,
2013-05-20 11:38:00,48.7,26.1,21.70,NW,315,2.7,8.1,41,0.00,,---,0.00,VWS V14.01,2013-05-20 17:38:00,
2013-05-20 11:39:00,49.6,26.9,21.70,West,270,3.1,4.0,41,0.00,,---,0.00,VWS V14.01,2013-05-20 17:39:00,
2013-05-20 11:40:00,49.6,26.9,21.70,WSW,248,5.4,5.4,41,0.00,,---,0.00,VWS V14.01,2013-05-20 17:40:00,
2013-05-20 11:41:00,49.5,26.8,21.70,NW,315,3.1,6.3,41,0.00,,---,0.00,VWS V14.01,2013-05-20 17:41:00,
2013-05-20 12:05:00,47.3,25.4,21.70,West,270,3.1,4.9,42,0.00,,---,0.00,VWS V14.01,2013-05-20 18:05:00,
2013-05-20 12:36:00,47.7,26.8,21.70,NW,315,5.4,5.8,44,0.00,,---,0.00,VWS V14.01,2013-05-20 18:36:00,
2013-05-20 12:41:00,49.3,27.8,21.70,NW,315,2.7,2.7,43,0.00,,---,0.00,VWS V14.01,2013-05-20 18:41:00,
2013-05-20 12:46:00,49.1,27.0,21.70,WNW,292,3.1,4.9,42,0.00,,---,0.00,VWS V14.01,2013-05-20 18:46:00,
2013-05-20 12:51:00,48.2,25.6,21.70,SW,225,3.6,7.2,41,0.00,,---,0.00,VWS V14.01,2013-05-20 18:51:00,
2013-05-20 12:56:00,48.7,26.1,21.70,WNW,292,3.1,7.2,41,0.00,,---,0.00,VWS V14.01,2013-05-20 18:56:00,
2013-05-20 13:01:00,48.6,26.5,21.70,WNW,292,2.7,4.0,42,0.00,,---,0.00,VWS V14.01,2013-05-20 19:01:00,
2013-05-20 13:06:00,49.1,27.0,21.70,NW,315,2.2,2.2,42,0.00,,---,0.00,VWS V14.01,2013-05-20 19:06:00,
2013-05-20 13:11:00,49.8,27.1,21.70,SW,225,3.1,4.0,41,0.00,,---,0.00,VWS V14.01,2013-05-20 19:11:00,
2013-05-20 13:16:00,49.6,26.9,21.70,NW,315,3.6,3.6,41,0.00,,---,0.00,VWS V14.01,2013-05-20 19:16:00,
2013-05-20 13:21:00,48.2,26.2,21.73,SW,225,5.4,11.0,42,0.00,,---,0.00,VWS V14.01,2013-05-20 19:21:00,
2013-05-20 13:26:00,42.6,30.1,21.73,NW,315,4.0,6.3,61,0.00,,---,0.00,VWS V14.01,2013-05-20 19:26:00,
2013-05-20 13:31:00,40.6,31.6,21.73,NW,315,2.7,2.7,70,0.00,,---,0.00,VWS V14.01,2013-05-20 19:31:00,
2013-05-20 13:36:00,39.7,32.5,21.73,NW,315,0.0,0.0,75,0.00,,---,0.00,VWS V14.01,2013-05-20 19:36:00,
2013-05-20 13:41:00,41.0,35.6,21.73,SW,225,4.0,4.0,81,0.00,,---,0.00,VWS V14.01,2013-05-20 19:41:00,
2013-05-20 13:46:00,42.4,35.8,21.73,NW,315,0.0,0.0,77,0.00,,---,0.00,VWS V14.01,2013-05-20 19:46:00,
2013-05-20 13:51:00,43.5,34.4,21.73,West,270,2.2,2.7,70,0.00,,---,0.00,VWS V14.01,2013-05-20 19:51:00,
2013-05-20 13:56:00,45.3,33.1,21.73,NW,315,2.7,6.3,62,0.00,,---,0.00,VWS V14.01,2013-05-20 19:56:00,
2013-05-20 14:02:00,46.6,30.8,21.73,NW,315,5.8,5.8,54,0.00,,---,0.00,VWS V14.01,2013-05-20 20:02:00,
2013-05-20 14:07:00,46.9,29.3,21.73,NW,315,2.7,2.7,50,0.00,,---,0.00,VWS V14.01,2013-05-20 20:07:00,
2013-05-20 14:12:00,47.3,29.1,21.73,WNW,292,4.0,4.5,49,0.00,,---,0.00,VWS V14.01,2013-05-20 20:12:00,
2013-05-20 14:17:00,47.5,28.8,21.73,WNW,292,3.6,4.0,48,0.00,,---,0.00,VWS V14.01,2013-05-20 20:17:00,
2013-05-20 14:23:00,48.6,29.8,21.73,North,0,2.7,8.1,48,0.00,,---,0.00,VWS V14.01,2013-05-20 20:23:00,
2013-05-20 14:28:00,49.3,29.4,21.73,NW,315,7.2,7.2,46,0.00,,---,0.00,VWS V14.01,2013-05-20 20:28:00,
2013-05-20 14:33:00,48.9,28.5,21.73,South,180,3.6,5.8,45,0.00,,---,0.00,VWS V14.01,2013-05-20 20:33:00,
2013-05-20 14:38:00,50.7,29.1,21.73,SW,225,3.1,4.9,43,0.00,,---,0.00,VWS V14.01,2013-05-20 20:38:00,
2013-05-20 14:43:00,48.7,26.7,21.73,East,90,3.1,3.1,42,0.00,,---,0.00,VWS V14.01,2013-05-20 20:43:00,
2013-05-20 14:48:00,50.0,27.8,21.73,West,270,3.1,4.9,42,0.00,,---,0.00,VWS V14.01,2013-05-20 20:48:00,
2013-05-20 14:53:00,48.7,26.7,21.73,NW,315,3.1,5.8,42,0.00,,---,0.00,VWS V14.01,2013-05-20 20:53:00,
2013-05-20 14:58:00,48.6,27.1,21.73,NW,315,8.3,8.3,43,0.00,,---,0.00,VWS V14.01,2013-05-20 20:58:00,
2013-05-20 15:03:00,46.2,27.1,21.73,West,270,4.0,7.2,47,0.00,,---,0.00,VWS V14.01,2013-05-20 21:03:00,
2013-05-20 15:08:00,44.2,28.2,21.73,West,270,6.7,8.1,53,0.00,,---,0.00,VWS V14.01,2013-05-20 21:08:00,
2013-05-20 15:13:00,44.2,29.1,21.73,SW,225,2.7,4.9,55,0.00,,---,0.00,VWS V14.01,2013-05-20 21:13:00,
2013-05-20 15:18:00,44.1,29.4,21.73,West,270,3.6,8.7,56,0.00,,---,0.00,VWS V14.01,2013-05-20 21:18:00,
2013-05-20 15:24:00,46.0,29.9,21.73,South,180,3.6,4.5,53,0.00,,---,0.00,VWS V14.01,2013-05-20 21:24:00,
2013-05-20 15:29:00,47.3,29.1,21.73,West,270,3.6,3.6,49,0.00,,---,0.00,VWS V14.01,2013-05-20 21:29:00,
2013-05-20 15:34:00,49.3,29.9,21.73,NW,315,4.9,4.9,47,0.00,,---,0.00,VWS V14.01,2013-05-20 21:34:00,
2013-05-20 15:39:00,49.5,29.6,21.73,NW,315,5.4,6.3,46,0.00,,---,0.00,VWS V14.01,2013-05-20 21:39:00,
2013-05-20 15:44:00,48.6,27.6,21.73,WNW,292,6.3,6.3,44,0.00,,---,0.00,VWS V14.01,2013-05-20 21:44:00,
2013-05-20 15:49:00,50.5,29.5,21.73,NW,315,5.8,7.6,44,0.00,,---,0.00,VWS V14.01,2013-05-20 21:49:00,
2013-05-20 15:54:00,49.8,28.8,21.73,West,270,3.6,5.4,44,0.00,,---,0.00,VWS V14.01,2013-05-20 21:54:00,
2013-05-20 15:59:00,47.8,27.0,21.73,NW,315,6.3,12.3,44,0.00,,---,0.00,VWS V14.01,2013-05-20 21:59:00,
2013-05-20 16:04:00,48.7,28.4,21.73,WNW,292,5.4,7.2,45,0.00,,---,0.00,VWS V14.01,2013-05-20 22:04:00,
2013-05-20 16:09:00,48.2,26.8,21.73,WNW,292,5.8,6.3,43,0.00,,---,0.00,VWS V14.01,2013-05-20 22:09:00,
2013-05-20 16:15:00,48.2,26.8,21.73,West,270,4.9,5.8,43,0.00,,---,0.00,VWS V14.01,2013-05-20 22:15:00,
2013-05-20 16:20:00,48.7,27.3,21.73,West,270,3.1,7.6,43,0.00,,---,0.00,VWS V14.01,2013-05-20 22:20:00,
2013-05-20 16:25:00,49.5,27.3,21.73,West,270,3.6,8.3,42,0.00,,---,0.00,VWS V14.01,2013-05-20 22:25:00,
2013-05-20 16:30:00,50.2,27.4,21.73,SW,225,2.7,3.6,41,0.00,,---,0.00,VWS V14.01,2013-05-20 22:30:00,
2013-05-20 16:35:00,50.0,26.6,21.73,South,180,2.2,5.4,40,0.00,,---,0.00,VWS V14.01,2013-05-20 22:35:00,
2013-05-20 16:40:00,48.6,26.0,21.73,WNW,292,2.7,3.6,41,0.00,,---,0.00,VWS V14.01,2013-05-20 22:40:00,
2013-05-20 16:45:00,48.4,26.4,21.73,NW,315,3.1,5.8,42,0.00,,---,0.00,VWS V14.01,2013-05-20 22:45:00,
2013-05-20 16:50:00,47.5,26.1,21.73,West,270,3.1,4.0,43,0.00,,---,0.00,VWS V14.01,2013-05-20 22:50:00,
2013-05-20 16:55:00,47.7,26.3,21.73,NW,315,6.3,8.1,43,0.00,,---,0.00,VWS V14.01,2013-05-20 22:55:00,
2013-05-20 17:00:00,48.0,27.2,21.73,WNW,292,8.1,8.1,44,0.00,,---,0.00,VWS V14.01,2013-05-20 23:00:00,
2013-05-20 17:05:00,48.4,26.9,21.73,South,180,3.6,3.6,43,0.00,,---,0.00,VWS V14.01,2013-05-20 23:05:00,
2013-05-20 17:10:00,47.7,26.8,21.73,NW,315,5.4,5.8,44,0.00,,---,0.00,VWS V14.01,2013-05-20 23:10:00,
2013-05-20 17:15:00,47.3,26.0,21.73,NW,315,3.1,3.6,43,0.00,,---,0.00,VWS V14.01,2013-05-20 23:15:00,
2013-05-20 17:20:00,46.8,25.5,21.73,West,270,4.0,5.4,43,0.00,,---,0.00,VWS V14.01,2013-05-20 23:20:00,
2013-05-20 17:25:00,46.0,25.4,21.73,WNW,292,3.1,4.0,44,0.00,,---,0.00,VWS V14.01,2013-05-20 23:25:00,
2013-05-20 17:31:00,45.5,24.9,21.73,NW,315,4.0,5.8,44,0.00,,---,0.00,VWS V14.01,2013-05-20 23:31:00,
2013-05-20 17:36:00,45.3,25.2,21.73,NW,315,3.6,6.3,45,0.00,,---,0.00,VWS V14.01,2013-05-20 23:36:00,
2013-05-20 17:41:00,45.0,26.0,21.73,WNW,292,2.7,4.0,47,0.00,,---,0.00,VWS V14.01,2013-05-20 23:41:00,
2013-05-20 17:46:00,44.6,26.6,21.73,NW,315,3.1,4.9,49,0.00,,---,0.00,VWS V14.01,2013-05-20 23:46:00,
2013-05-20 17:51:00,43.5,27.1,21.73,NW,315,3.1,4.0,52,0.00,,---,0.00,VWS V14.01,2013-05-20 23:51:00,
2013-05-20 17:56:00,43.5,28.0,21.73,NW,315,2.2,3.1,54,0.00,,---,0.00,VWS V14.01,2013-05-20 23:56:00,
2013-05-20 18:01:00,43.2,27.7,21.73,SW,225,3.6,3.6,54,0.00,,---,0.00,VWS V14.01,2013-05-21 00:01:00,
2013-05-20 18:06:00,42.3,28.1,21.76,NW,315,3.6,5.8,57,0.00,,---,0.00,VWS V14.01,2013-05-21 00:06:00,
2013-05-20 18:11:00,41.5,30.7,21.76,NW,315,6.3,6.3,65,0.00,,---,0.00,VWS V14.01,2013-05-21 00:11:00,
2013-05-20 18:16:00,41.2,30.7,21.76,WNW,292,0.0,0.0,66,0.00,,---,0.00,VWS V14.01,2013-05-21 00:16:00,
2013-05-20 18:21:00,41.2,30.7,21.76,SW,225,0.0,0.0,66,0.00,,---,0.00,VWS V14.01,2013-05-21 00:21:00,
2013-05-20 18:26:00,42.1,29.6,21.76,NW,315,4.0,4.0,61,0.00,,---,0.00,VWS V14.01,2013-05-21 00:26:00,
2013-05-20 18:31:00,42.1,27.5,21.76,NW,315,4.9,5.8,56,0.00,,---,0.00,VWS V14.01,2013-05-21 00:31:00,
2013-05-20 18:36:00,42.1,27.1,21.76,NW,315,5.4,5.4,55,0.00,,---,0.00,VWS V14.01,2013-05-21 00:36:00,
2013-05-20 18:41:00,41.9,27.4,21.76,WNW,292,4.9,4.9,56,0.00,,---,0.00,VWS V14.01,2013-05-21 00:41:00,
2013-05-20 18:46:00,41.7,26.8,21.76,West,270,0.0,4.5,55,0.00,,---,0.00,VWS V14.01,2013-05-21 00:46:00,
2013-05-20 18:51:00,41.7,26.8,21.76,West,270,2.7,3.1,55,0.00,,---,0.00,VWS V14.01,2013-05-21 00:51:00,
2013-05-20 18:56:00,41.2,26.2,21.76,NW,315,3.1,7.6,55,0.00,,---,0.00,VWS V14.01,2013-05-21 00:56:00,
2013-05-20 19:01:00,41.2,26.7,21.76,South,180,0.0,0.0,56,0.00,,---,0.00,VWS V14.01,2013-05-21 01:01:00,
2013-05-20 19:06:00,41.4,25.5,21.76,NW,315,2.7,3.6,53,0.00,,---,0.00,VWS V14.01,2013-05-21 01:06:00,
2013-05-20 19:11:00,41.5,25.7,21.76,NW,315,4.0,4.9,53,0.00,,---,0.00,VWS V14.01,2013-05-21 01:11:00,
2013-05-20 19:16:00,41.5,25.2,21.76,NW,315,0.0,0.0,52,0.00,,---,0.00,VWS V14.01,2013-05-21 01:16:00,
2013-05-20 19:21:00,41.5,24.8,21.76,NW,315,4.5,6.3,51,0.00,,---,0.00,VWS V14.01,2013-05-21 01:21:00,
2013-05-20 19:26:00,41.2,24.0,21.76,NW,315,4.5,4.5,50,0.00,,---,0.00,VWS V14.01,2013-05-21 01:26:00,
2013-05-20 19:31:00,41.0,24.3,21.76,NW,315,3.1,4.0,51,0.00,,---,0.00,VWS V14.01,2013-05-21 01:31:00,
2013-05-20 19:36:00,40.6,23.9,21.76,North,0,3.1,5.4,51,0.00,,---,0.00,VWS V14.01,2013-05-21 01:36:00,
2013-05-20 19:41:00,40.5,23.3,21.76,NW,315,4.9,5.4,50,0.00,,---,0.00,VWS V14.01,2013-05-21 01:41:00,
2013-05-20 19:46:00,40.3,23.1,21.76,NW,315,0.0,2.2,50,0.00,,---,0.00,VWS V14.01,2013-05-21 01:46:00,
2013-05-20 19:51:00,39.9,23.3,21.76,North,0,0.0,0.0,51,0.00,,---,0.00,VWS V14.01,2013-05-21 01:51:00,
2013-05-20 19:56:00,39.7,23.1,21.76,SW,225,0.0,0.0,51,0.00,,---,0.00,VWS V14.01,2013-05-21 01:56:00,
2013-05-20 20:01:00,39.6,22.9,21.76,NW,315,0.0,0.0,51,0.00,,---,0.00,VWS V14.01,2013-05-21 02:01:00,
2013-05-20 20:06:00,39.2,23.1,21.76,NW,315,4.0,4.0,52,0.00,,---,0.00,VWS V14.01,2013-05-21 02:06:00,
2013-05-20 20:11:00,38.8,22.7,21.76,NW,315,0.0,0.0,52,0.00,,---,0.00,VWS V14.01,2013-05-21 02:11:00,
2013-05-20 20:16:00,38.7,22.6,21.76,NW,315,0.0,0.0,52,0.00,,---,0.00,VWS V14.01,2013-05-21 02:16:00,
2013-05-20 20:21:00,38.3,23.1,21.76,NW,315,0.0,0.0,54,0.00,,---,0.00,VWS V14.01,2013-05-21 02:21:00,
2013-05-20 20:26:00,37.9,22.8,21.76,NW,315,0.0,0.0,54,0.00,,---,0.00,VWS V14.01,2013-05-21 02:26:00,
2013-05-20 20:31:00,37.4,22.7,21.76,NW,315,0.0,0.0,55,0.00,,---,0.00,VWS V14.01,2013-05-21 02:31:00,
2013-05-20 20:36:00,37.4,22.7,21.76,NW,315,0.0,0.0,55,0.00,,---,0.00,VWS V14.01,2013-05-21 02:36:00,
2013-05-20 20:41:00,37.6,22.0,21.76,NW,315,0.0,0.0,53,0.00,,---,0.00,VWS V14.01,2013-05-21 02:41:00,
2013-05-20 20:46:00,37.6,22.0,21.76,NW,315,0.0,0.0,53,0.00,,---,0.00,VWS V14.01,2013-05-21 02:46:00,
2013-05-20 20:51:00,37.9,21.9,21.76,NW,315,0.0,0.0,52,0.00,,---,0.00,VWS V14.01,2013-05-21 02:51:00,
2013-05-20 20:56:00,37.9,21.9,21.76,West,270,0.0,2.2,52,0.00,,---,0.00,VWS V14.01,2013-05-21 02:56:00,
2013-05-20 21:01:00,38.5,21.9,21.76,West,270,2.7,3.1,51,0.00,,---,0.00,VWS V14.01,2013-05-21 03:01:00,
2013-05-20 21:06:00,38.5,21.9,21.76,West,270,0.0,0.0,51,0.00,,---,0.00,VWS V14.01,2013-05-21 03:06:00,
2013-05-20 21:12:00,38.5,21.9,21.76,WNW,292,0.0,0.0,51,0.00,,---,0.00,VWS V14.01,2013-05-21 03:12:00,
2013-05-20 21:17:00,38.7,22.6,21.76,NW,315,3.6,3.6,52,0.00,,---,0.00,VWS V14.01,2013-05-21 03:17:00,
2013-05-20 21:22:00,38.7,23.0,21.79,WNW,292,0.0,0.0,53,0.00,,---,0.00,VWS V14.01,2013-05-21 03:22:00,
2013-05-20 21:27:00,38.5,23.3,21.79,NW,315,0.0,2.2,54,0.00,,---,0.00,VWS V14.01,2013-05-21 03:27:00,
2013-05-20 21:32:00,38.3,23.6,21.79,NW,315,2.7,2.7,55,0.00,,---,0.00,VWS V14.01,2013-05-21 03:32:00,
2013-05-20 21:37:00,38.3,24.0,21.79,NW,315,3.1,3.6,56,0.00,,---,0.00,VWS V14.01,2013-05-21 03:37:00,
2013-05-20 21:42:00,38.3,24.4,21.79,NW,315,4.9,4.9,57,0.00,,---,0.00,VWS V14.01,2013-05-21 03:42:00,
2013-05-20 21:47:00,38.3,24.4,21.79,NW,315,4.0,4.0,57,0.00,,---,0.00,VWS V14.01,2013-05-21 03:47:00,
2013-05-20 21:52:00,38.1,24.2,21.79,NW,315,0.0,0.0,57,0.00,,---,0.00,VWS V14.01,2013-05-21 03:52:00,
2013-05-20 21:57:00,37.8,23.5,21.79,NW,315,2.2,2.2,56,0.00,,---,0.00,VWS V14.01,2013-05-21 03:57:00,
2013-05-20 22:01:00,37.4,23.6,21.79,NNW,338,5.4,5.4,57,0.00,,---,0.00,VWS V14.01,2013-05-21 04:01:00,
2013-05-20 22:03:00,37.4,22.3,21.79,NW,315,5.8,5.8,54,0.00,,---,0.00,VWS V14.01,2013-05-21 04:03:00,
2013-05-20 22:06:00,37.2,21.2,21.79,WNW,292,3.6,4.9,52,0.00,,---,0.00,VWS V14.01,2013-05-21 04:06:00,
2013-05-20 22:11:00,37.2,20.8,21.79,NW,315,0.0,5.8,51,0.00,,---,0.00,VWS V14.01,2013-05-21 04:11:00,
2013-05-20 22:16:00,36.9,20.0,21.79,NW,315,4.0,8.7,50,0.00,,---,0.00,VWS V14.01,2013-05-21 04:16:00,
2013-05-20 22:21:00,37.2,20.3,21.79,NW,315,5.4,5.4,50,0.00,,---,0.00,VWS V14.01,2013-05-21 04:21:00,
2013-05-20 22:26:00,37.0,20.1,21.79,West,270,4.0,4.0,50,0.00,,---,0.00,VWS V14.01,2013-05-21 04:26:00,
2013-05-20 22:31:00,37.0,20.1,21.79,NW,315,4.5,4.5,50,0.00,,---,0.00,VWS V14.01,2013-05-21 04:31:00,
2013-05-20 22:36:00,36.7,19.8,21.79,NW,315,5.4,5.4,50,0.00,,---,0.00,VWS V14.01,2013-05-21 04:36:00,
2013-05-20 22:41:00,36.3,19.9,21.79,NW,315,3.1,4.0,51,0.00,,---,0.00,VWS V14.01,2013-05-21 04:41:00,
2013-05-20 22:46:00,36.0,20.1,21.79,NW,315,0.0,0.0,52,0.00,,---,0.00,VWS V14.01,2013-05-21 04:46:00,
2013-05-20 22:51:00,35.8,20.3,21.79,NW,315,4.0,4.0,53,0.00,,---,0.00,VWS V14.01,2013-05-21 04:51:00,
2013-05-20 22:57:00,35.6,20.6,21.79,WNW,292,3.6,4.0,54,0.00,,---,0.00,VWS V14.01,2013-05-21 04:57:00,
2013-05-20 23:02:00,36.0,21.4,21.79,WNW,292,3.1,4.0,55,0.00,,---,0.00,VWS V14.01,2013-05-21 05:02:00,
2013-05-20 23:07:00,36.0,21.0,21.79,WNW,292,0.0,2.7,54,0.00,,---,0.00,VWS V14.01,2013-05-21 05:07:00,
2013-05-20 23:12:00,35.8,21.2,21.79,NW,315,2.2,2.2,55,0.00,,---,0.00,VWS V14.01,2013-05-21 05:12:00,
2013-05-20 23:17:00,35.6,21.0,21.79,NW,315,0.0,0.0,55,0.00,,---,0.00,VWS V14.01,2013-05-21 05:17:00,
2013-05-20 23:22:00,35.6,21.5,21.79,WNW,292,0.0,0.0,56,0.00,,---,0.00,VWS V14.01,2013-05-21 05:22:00,
2013-05-20 23:27:00,35.2,21.1,21.79,NW,315,0.0,0.0,56,0.00,,---,0.00,VWS V14.01,2013-05-21 05:27:00,
2013-05-20 23:32:00,35.2,21.1,21.79,NW,315,0.0,0.0,56,0.00,,---,0.00,VWS V14.01,2013-05-21 05:32:00,
2013-05-20 23:37:00,34.7,21.5,21.79,NW,315,0.0,0.0,58,0.00,,---,0.00,VWS V14.01,2013-05-21 05:37:00,
2013-05-20 23:42:00,34.3,21.1,21.79,NW,315,2.2,2.7,58,0.00,,---,0.00,VWS V14.01,2013-05-21 05:42:00,
2013-05-20 23:47:00,34.3,21.5,21.79,NW,315,0.0,0.0,59,0.00,,---,0.00,VWS V14.01,2013-05-21 05:47:00,
2013-05-20 23:52:00,34.5,21.3,21.79,NW,315,0.0,0.0,58,0.00,,---,0.00,VWS V14.01,2013-05-21 05:52:00,
2013-05-20 23:57:00,34.3,21.5,21.79,NW,315,2.2,2.2,59,0.00,,---,0.00,VWS V14.01,2013-05-21 05:57:00,